Alturas, CA (96101)

6:51 PM PDT on September 22, 2014 (GMT -0700)
Alturas Municipal | Change Station
CLOSE
Current Station
Airport
Location: Alturas,
Elevation: 4373 ft
Nearby Weather Stations

Elev 4373 ft 41.49 °N, 120.56 °W | Updated 56 minutes ago

Clear
Clear
76 °F
Feels Like 76 °F
N
17
Wind Variable Wind from West

Today
High -- | Low -- °F
--% Chance of Precip.
Yesterday
High -- | Low -- °F
Precip. -- in
6:49 AM 6:59 PM
Waning Crescent, 1% visible
Pressure 29.94 in
Visibility 10.0 miles
Clouds Clear
Dew Point 43 °F
Humidity 31%
Rainfall 0.00 in
Snow Depth 0 in , 0 in , 0 in
UV 1 out of 12
Pollen 5.50 out of 12
Air Quality Not available.
Flu Activity Not available.
METAR KAAT 230055Z AUTO 26015KT 10SM CLR 24/06 A3004 RMK AO2 SLP139 T02440061

More Conditions Fewer Conditions

Pressure 29.94 in
Visibility 10.0 miles
Clouds Clear
Dew Point 43 °F
Humidity 31%
Rainfall 0.00 in
Snow Depth 0 in , 0 in , 0 in
UV 1 out of 12
Pollen 5.50 out of 12
Air Quality Not available.
Flu Activity Not available.
METAR KAAT 230055Z AUTO 26015KT 10SM CLR 24/06 A3004 RMK AO2 SLP139 T02440061

More Conditions Fewer Conditions

10-Day Weather Forecast

Almanac

Astronomy

Sep. 22, 2014 Rise Set
Actual Time 6:49 AM PDT 6:59 PM PDT
Civil Twilight 6:22 AM PDT 7:26 PM PDT
Nautical Twilight 5:49 AM PDT 7:59 PM PDT
Astronomical Twilight 5:16 AM PDT 8:32 PM PDT
Moon 5:22 AM PDT (9/22) 6:09 PM PDT (9/22)
Length of Visible Light 13h 04m
Length of Day
12h 09m
Tomorrow will be 2m 46s shorter.
Waning Crescent, 1% of the Moon is Illuminated
Today
Waning Crescent
Sep 24
New
Oct 1
First Quarter
Oct 8
Full
Oct 15
Last Quarter

Today's Extremes

State Highs State Lows

Community

WunderPhotos

Upload Photos

1,755,583 photos uploaded!

Nearby

Snow Depth

Station Depth Elevation
Summit Meadow 0 in 9122 ft
CSS Lab 0 in 6900 ft
Adin Mountain 0 in 6200 ft
Leavitt Meadows 0 in 7200 ft

Earthquake Activity

City Distance Mag. Time & Date
Lakeview, Oregon 54 miles 3.0 7:28 PM PDT
2014-09-21
Lakeview, Oregon 53 miles 2.5 2:45 AM PDT
2014-09-20
Lakeview, Oregon 53 miles 2.5 10:12 PM PDT
2014-09-19
Lakeview, Oregon 53 miles 2.9 7:40 PM PDT
2014-09-19
Minimum magnitude displayed is 2.5.

Coastal Water Temperatures

Place Temperature
No Stations Reporting

Nearby Weather Stations